createdAt,value
2018-09-26T00:01:11.773Z,10.45
2018-09-26T00:03:47.195Z,10.48
2018-09-26T00:06:17.498Z,10.58
2018-09-26T00:08:46.458Z,10.63
2018-09-26T00:11:15.467Z,10.59
2018-09-26T00:13:44.437Z,10.57
2018-09-26T00:16:13.623Z,10.62
2018-09-26T00:18:42.528Z,10.55
2018-09-26T00:21:11.469Z,10.42
2018-09-26T00:23:40.413Z,10.36
2018-09-26T00:26:09.366Z,10.30
2018-09-26T00:28:38.955Z,10.24
2018-09-26T00:31:07.904Z,10.25
2018-09-26T00:33:37.198Z,10.19
2018-09-26T00:36:08.037Z,10.17
2018-09-26T00:38:36.979Z,10.06
2018-09-26T00:41:05.955Z,10.01
2018-09-26T00:43:35.945Z,10.00
2018-09-26T00:46:05.916Z,10.02
2018-09-26T00:48:34.847Z,10.13
2018-09-26T00:51:04.791Z,10.17
2018-09-26T00:53:33.911Z,10.14
2018-09-26T00:56:02.995Z,10.11
2018-09-26T00:58:31.975Z,10.08
2018-09-26T01:01:00.884Z,10.08
2018-09-26T01:03:31.312Z,10.12
2018-09-26T01:06:01.136Z,10.17
2018-09-26T01:08:30.080Z,10.20
2018-09-26T01:10:59.070Z,10.21
2018-09-26T01:13:28.035Z,10.17
2018-09-26T01:15:56.946Z,10.12
2018-09-26T01:18:25.872Z,10.10
2018-09-26T01:20:54.907Z,10.01
2018-09-26T01:23:23.795Z,9.95
2018-09-26T01:25:52.690Z,9.97
2018-09-26T01:28:21.615Z,9.88
2018-09-26T01:30:50.511Z,9.84
2018-09-26T01:33:19.439Z,9.86
2018-09-26T01:35:48.326Z,9.91
2018-09-26T01:38:17.266Z,9.90
2018-09-26T01:40:46.166Z,9.91
2018-09-26T01:43:15.151Z,9.86
2018-09-26T01:45:44.047Z,9.89
2018-09-26T01:48:12.978Z,9.90
2018-09-26T01:50:41.923Z,9.84
2018-09-26T01:53:10.816Z,9.83
2018-09-26T01:55:39.732Z,9.80
2018-09-26T01:58:08.634Z,9.75
2018-09-26T02:00:37.576Z,9.78
2018-09-26T02:03:06.510Z,9.82
2018-09-26T02:05:35.480Z,9.81
2018-09-26T02:08:04.505Z,9.79
2018-09-26T02:10:33.400Z,9.74
2018-09-26T02:13:02.319Z,9.72
2018-09-26T02:15:31.204Z,9.65
2018-09-26T02:18:00.100Z,9.58
2018-09-26T02:20:29.071Z,9.57
2018-09-26T02:22:57.965Z,9.49
2018-09-26T02:25:26.900Z,9.42
2018-09-26T02:27:55.886Z,9.48
2018-09-26T02:30:24.780Z,9.48
2018-09-26T02:32:53.693Z,9.45
2018-09-26T02:35:22.626Z,9.48
2018-09-26T02:37:51.540Z,9.46
2018-09-26T02:40:20.509Z,9.47
2018-09-26T02:42:50.047Z,9.47
2018-09-26T02:45:19.045Z,9.49
2018-09-26T02:47:47.980Z,9.56
2018-09-26T02:50:16.883Z,9.52
2018-09-26T02:52:45.796Z,9.42
2018-09-26T02:55:14.744Z,9.39
2018-09-26T02:57:43.665Z,9.34
2018-09-26T03:00:13.010Z,9.31
2018-09-26T03:02:41.998Z,9.29
2018-09-26T03:05:10.908Z,9.30
2018-09-26T03:07:39.853Z,9.20
2018-09-26T03:10:08.879Z,9.09
2018-09-26T03:12:37.788Z,9.13
2018-09-26T03:15:06.766Z,9.18
2018-09-26T03:17:35.775Z,9.13
2018-09-26T03:20:05.331Z,9.09
2018-09-26T03:22:34.235Z,9.41
2018-09-26T03:25:03.219Z,9.75
2018-09-26T03:27:32.203Z,9.79
2018-09-26T03:30:01.119Z,9.76
2018-09-26T03:32:30.063Z,9.67
2018-09-26T03:35:01.915Z,9.48
2018-09-26T03:37:30.866Z,9.39
2018-09-26T03:39:59.735Z,9.27
2018-09-26T03:42:28.653Z,9.24
2018-09-26T03:44:57.571Z,9.22
2018-09-26T03:47:26.529Z,9.17
2018-09-26T03:49:55.423Z,9.10
2018-09-26T03:52:24.344Z,9.11
2018-09-26T03:54:53.273Z,9.16
2018-09-26T03:57:22.174Z,9.21
2018-09-26T03:59:51.063Z,9.16
2018-09-26T04:02:20.011Z,9.06
2018-09-26T04:04:48.942Z,9.10
2018-09-26T04:07:17.854Z,9.13
2018-09-26T04:09:46.862Z,9.07
2018-09-26T04:12:15.751Z,9.00
2018-09-26T04:14:44.626Z,8.90
2018-09-26T04:17:13.518Z,8.88
2018-09-26T04:19:42.412Z,8.90
2018-09-26T04:22:11.311Z,8.88
2018-09-26T04:24:40.203Z,8.89
2018-09-26T04:27:09.209Z,8.89
2018-09-26T04:29:38.088Z,8.85
2018-09-26T04:32:07.091Z,8.81
2018-09-26T04:34:35.987Z,8.84
2018-09-26T04:37:04.886Z,8.80
2018-09-26T04:39:33.807Z,8.71
2018-09-26T04:42:02.723Z,8.82
2018-09-26T04:44:31.650Z,8.84
2018-09-26T04:47:00.682Z,8.87
2018-09-26T04:49:29.592Z,8.86
2018-09-26T04:51:58.487Z,8.56
2018-09-26T04:54:27.447Z,8.79
2018-09-26T04:56:56.336Z,8.92
2018-09-26T04:59:25.233Z,9.06
2018-09-26T05:01:54.175Z,9.22
2018-09-26T05:04:23.087Z,9.31
2018-09-26T05:06:52.055Z,9.41
2018-09-26T05:09:20.977Z,9.52
2018-09-26T05:11:49.934Z,9.62
2018-09-26T05:14:18.845Z,9.70
2018-09-26T05:16:47.816Z,9.81
2018-09-26T05:19:16.747Z,9.94
2018-09-26T05:21:45.669Z,10.00
2018-09-26T05:24:14.589Z,10.12
2018-09-26T05:26:43.504Z,10.27
2018-09-26T05:29:12.402Z,10.38
2018-09-26T05:31:41.312Z,10.44
2018-09-26T05:34:10.219Z,10.54
2018-09-26T05:36:39.116Z,10.58
2018-09-26T05:39:10.399Z,10.65
2018-09-26T05:41:39.396Z,10.70
2018-09-26T05:44:08.442Z,10.83
2018-09-26T05:46:37.366Z,10.89
2018-09-26T05:49:06.268Z,10.90
2018-09-26T05:51:35.242Z,10.99
2018-09-26T05:54:04.171Z,11.08
2018-09-26T05:56:33.159Z,11.24
2018-09-26T05:59:02.107Z,11.38
2018-09-26T06:01:31.012Z,11.53
2018-09-26T06:04:00.262Z,11.58
2018-09-26T06:06:29.171Z,11.73
2018-09-26T06:08:58.095Z,11.72
2018-09-26T06:11:27.007Z,11.84
2018-09-26T06:13:55.983Z,12.01
2018-09-26T06:16:24.899Z,12.09
2018-09-26T06:18:53.861Z,12.02
2018-09-26T06:21:22.782Z,12.00
2018-09-26T06:23:51.768Z,11.75
2018-09-26T06:26:21.711Z,11.95
2018-09-26T06:28:50.684Z,11.99
2018-09-26T06:31:19.615Z,12.08
2018-09-26T06:33:48.532Z,12.04
2018-09-26T06:36:17.522Z,12.27
2018-09-26T06:38:46.405Z,12.32
2018-09-26T06:41:15.355Z,12.41
2018-09-26T06:43:44.272Z,12.39
2018-09-26T06:46:13.215Z,12.35
2018-09-26T06:48:42.216Z,12.37
2018-09-26T06:51:11.195Z,12.52
2018-09-26T06:53:40.143Z,12.49
2018-09-26T06:56:09.079Z,12.45
2018-09-26T06:58:37.984Z,12.35
2018-09-26T07:01:07.132Z,12.28
2018-09-26T07:03:36.095Z,12.39
2018-09-26T07:06:05.070Z,12.34
2018-09-26T07:08:34.025Z,12.32
2018-09-26T07:11:02.971Z,12.02
2018-09-26T07:13:31.913Z,12.41
2018-09-26T07:16:00.864Z,12.57
2018-09-26T07:18:29.786Z,12.56
2018-09-26T07:20:58.802Z,12.60
2018-09-26T07:23:27.708Z,12.48
2018-09-26T07:25:56.675Z,12.58
2018-09-26T07:28:25.588Z,12.69
2018-09-26T07:30:54.553Z,12.79
2018-09-26T07:33:23.506Z,12.73
2018-09-26T07:35:52.437Z,12.71
2018-09-26T07:38:21.372Z,12.65
2018-09-26T07:40:50.591Z,12.70
2018-09-26T07:43:19.639Z,12.70
2018-09-26T07:45:48.597Z,12.66
2018-09-26T07:48:17.764Z,12.75
2018-09-26T07:50:46.707Z,12.69
2018-09-26T07:53:15.622Z,12.75
2018-09-26T07:55:44.559Z,12.83
2018-09-26T07:58:13.583Z,12.72
2018-09-26T08:00:42.507Z,12.82
2018-09-26T08:03:11.427Z,13.01
2018-09-26T08:05:40.374Z,13.09
2018-09-26T08:08:09.317Z,13.07
2018-09-26T08:10:38.239Z,13.14
2018-09-26T08:13:11.819Z,13.12
2018-09-26T08:15:40.805Z,13.02
2018-09-26T08:18:09.745Z,13.08
2018-09-26T08:20:38.700Z,13.13
2018-09-26T08:23:07.882Z,13.14
2018-09-26T08:25:36.786Z,13.24
2018-09-26T08:28:05.695Z,13.21
2018-09-26T08:30:34.692Z,13.21
2018-09-26T08:33:03.635Z,13.44
2018-09-26T08:35:32.519Z,13.58
2018-09-26T08:38:01.545Z,13.66
2018-09-26T08:40:30.508Z,13.70
2018-09-26T08:43:00.243Z,13.75
2018-09-26T08:45:29.199Z,13.85
2018-09-26T08:47:58.131Z,13.96
2018-09-26T08:50:27.076Z,13.92
2018-09-26T08:52:56.023Z,13.81
2018-09-26T08:55:25.057Z,13.69
2018-09-26T08:57:54.004Z,13.64
2018-09-26T09:00:28.054Z,13.42
2018-09-26T09:02:57.003Z,13.33
2018-09-26T09:05:25.954Z,13.31
2018-09-26T09:07:54.861Z,13.22
2018-09-26T09:10:23.814Z,13.12
2018-09-26T09:12:52.715Z,13.15
2018-09-26T09:15:21.635Z,13.07
2018-09-26T09:17:50.784Z,13.07
2018-09-26T09:20:20.677Z,13.09
2018-09-26T09:22:49.603Z,13.18
2018-09-26T09:25:18.489Z,13.16
2018-09-26T09:27:47.400Z,13.24
2018-09-26T09:30:16.319Z,13.32
2018-09-26T09:32:45.230Z,13.40
2018-09-26T09:35:14.172Z,13.34
2018-09-26T09:37:44.169Z,13.22
2018-09-26T09:40:13.122Z,13.31
2018-09-26T09:42:42.022Z,13.44
2018-09-26T09:45:11.071Z,13.61
2018-09-26T09:47:40.082Z,13.45
2018-09-26T09:50:09.001Z,13.56
2018-09-26T09:52:37.954Z,13.44
2018-09-26T09:55:06.915Z,13.45
2018-09-26T09:57:35.811Z,13.47
2018-09-26T10:00:04.782Z,13.46
2018-09-26T10:02:33.797Z,13.42
2018-09-26T10:05:02.690Z,13.44
2018-09-26T10:07:31.664Z,13.49
2018-09-26T10:10:00.567Z,13.62
2018-09-26T10:12:29.462Z,13.44
2018-09-26T10:14:58.480Z,13.39
2018-09-26T10:17:27.397Z,13.51
2018-09-26T10:19:56.320Z,13.51
2018-09-26T10:22:25.224Z,13.56
2018-09-26T10:24:54.156Z,13.74
2018-09-26T10:27:23.090Z,14.01
2018-09-26T10:29:52.056Z,14.16
2018-09-26T10:32:21.052Z,14.17
2018-09-26T10:34:49.967Z,14.02
2018-09-26T10:37:18.874Z,14.20
2018-09-26T10:39:47.831Z,14.24
2018-09-26T10:42:16.758Z,14.01
2018-09-26T10:44:45.651Z,14.06
2018-09-26T10:47:14.579Z,14.23
2018-09-26T10:49:43.511Z,14.22
2018-09-26T10:52:12.492Z,14.15
2018-09-26T10:54:41.424Z,14.13
2018-09-26T10:57:10.370Z,14.06
2018-09-26T10:59:39.302Z,14.07
2018-09-26T11:02:08.278Z,14.08
2018-09-26T11:04:37.147Z,14.04
2018-09-26T11:07:06.060Z,13.96
2018-09-26T11:09:34.959Z,13.99
2018-09-26T11:12:03.859Z,14.02
2018-09-26T11:14:32.841Z,14.00
2018-09-26T11:17:01.747Z,14.02
2018-09-26T11:19:32.903Z,14.02
2018-09-26T11:22:01.823Z,14.04
2018-09-26T11:24:30.813Z,14.05
2018-09-26T11:26:59.729Z,14.06
2018-09-26T11:29:28.643Z,14.09
2018-09-26T11:31:57.567Z,14.14
2018-09-26T11:34:27.814Z,14.22
2018-09-26T11:36:57.168Z,14.34
2018-09-26T11:39:26.084Z,14.48
2018-09-26T11:41:54.996Z,14.36
2018-09-26T11:44:24.013Z,14.20
2018-09-26T11:46:52.899Z,14.04
2018-09-26T11:49:21.879Z,14.01
2018-09-26T11:51:50.799Z,13.88
2018-09-26T11:54:19.743Z,13.79
2018-09-26T11:56:48.635Z,13.87
2018-09-26T11:59:17.624Z,13.88
2018-09-26T12:01:46.635Z,13.92
2018-09-26T12:04:15.560Z,14.00
2018-09-26T12:06:44.467Z,13.96
2018-09-26T12:09:13.377Z,14.00
2018-09-26T12:11:42.287Z,14.04
2018-09-26T12:14:11.211Z,13.99
2018-09-26T12:16:41.154Z,14.00
2018-09-26T12:19:10.076Z,14.15
2018-09-26T12:21:39.068Z,14.19
2018-09-26T12:24:08.035Z,14.27
2018-09-26T12:26:36.947Z,14.31
2018-09-26T12:29:05.947Z,14.38
2018-09-26T12:31:34.896Z,14.39
2018-09-26T12:34:03.839Z,14.41
2018-09-26T12:36:32.770Z,14.54
2018-09-26T12:39:01.784Z,14.63
2018-09-26T12:41:30.721Z,14.57
2018-09-26T12:43:59.670Z,14.61
2018-09-26T12:46:28.585Z,14.69
2018-09-26T12:48:57.507Z,14.72
2018-09-26T12:51:26.461Z,14.45
2018-09-26T12:53:55.491Z,14.45
2018-09-26T12:56:24.403Z,14.37
2018-09-26T12:58:53.326Z,14.17
2018-09-26T13:01:22.267Z,14.03
2018-09-26T13:03:51.193Z,13.97
2018-09-26T13:06:20.257Z,14.12
2018-09-26T13:08:49.196Z,14.16
2018-09-26T13:11:18.140Z,14.24
2018-09-26T13:13:47.082Z,14.22
2018-09-26T13:16:16.029Z,14.30
2018-09-26T13:18:44.952Z,14.33
2018-09-26T13:21:13.846Z,14.34
2018-09-26T13:23:46.495Z,14.40
2018-09-26T13:26:16.149Z,14.54
2018-09-26T13:28:45.073Z,14.58
2018-09-26T13:31:14.018Z,14.60
2018-09-26T13:33:42.966Z,14.69
2018-09-26T13:36:11.893Z,14.66
2018-09-26T13:38:40.851Z,14.52
2018-09-26T13:41:09.806Z,14.53
2018-09-26T13:43:38.752Z,14.50
2018-09-26T13:46:07.727Z,14.29
2018-09-26T13:48:36.639Z,14.11
2018-09-26T13:51:05.551Z,14.01
2018-09-26T13:53:34.489Z,13.98
2018-09-26T13:56:03.452Z,14.01
2018-09-26T13:58:32.348Z,14.12
2018-09-26T14:01:01.247Z,14.27
2018-09-26T14:03:30.253Z,14.40
2018-09-26T14:05:59.195Z,14.39
2018-09-26T14:08:28.131Z,14.27
2018-09-26T14:10:57.067Z,14.30
2018-09-26T14:13:26.087Z,14.22
2018-09-26T14:15:55.016Z,14.12
2018-09-26T14:18:23.937Z,13.87
2018-09-26T14:20:52.866Z,13.87
2018-09-26T14:23:21.811Z,13.91
2018-09-26T14:25:50.762Z,13.96
2018-09-26T14:28:19.668Z,13.99
2018-09-26T14:30:48.717Z,14.02
2018-09-26T14:33:17.595Z,13.76
2018-09-26T14:35:46.524Z,13.81
2018-09-26T14:38:15.469Z,13.88
2018-09-26T14:40:44.406Z,13.89
2018-09-26T14:43:13.371Z,13.87
2018-09-26T14:45:42.307Z,13.90
2018-09-26T14:48:11.287Z,13.90
2018-09-26T14:50:40.371Z,13.85
2018-09-26T14:53:09.323Z,13.85
2018-09-26T14:55:38.300Z,13.77
2018-09-26T14:58:07.295Z,13.85
2018-09-26T15:00:36.350Z,13.92
2018-09-26T15:03:06.529Z,13.90
2018-09-26T15:05:35.535Z,13.89
2018-09-26T15:08:04.476Z,13.85
2018-09-26T15:10:33.564Z,13.93
2018-09-26T15:13:02.559Z,13.97
2018-09-26T15:15:31.468Z,14.02
2018-09-26T15:18:00.426Z,14.05
2018-09-26T15:20:29.380Z,14.03
2018-09-26T15:22:58.323Z,14.05
2018-09-26T15:25:27.240Z,13.95
2018-09-26T15:27:56.314Z,13.79
2018-09-26T15:30:25.608Z,13.79
2018-09-26T15:32:54.764Z,13.68
2018-09-26T15:35:23.676Z,13.58
2018-09-26T15:37:52.598Z,13.58
2018-09-26T15:40:21.579Z,13.27
2018-09-26T15:42:50.484Z,13.35
2018-09-26T15:45:19.452Z,13.32
2018-09-26T15:47:48.426Z,13.24
2018-09-26T15:50:17.429Z,13.18
2018-09-26T15:52:46.444Z,13.16
2018-09-26T15:55:15.384Z,12.99
2018-09-26T15:57:44.328Z,13.08
2018-09-26T16:00:13.314Z,13.12
2018-09-26T16:02:42.239Z,12.91
2018-09-26T16:05:11.436Z,13.10
2018-09-26T16:07:40.332Z,13.07
2018-09-26T16:10:09.363Z,13.12
2018-09-26T16:12:38.387Z,13.07
2018-09-26T16:15:07.353Z,13.01
2018-09-26T16:17:36.324Z,13.03
2018-09-26T16:20:05.728Z,13.06
2018-09-26T16:22:34.655Z,12.73
2018-09-26T16:25:03.631Z,12.90
2018-09-26T16:27:32.548Z,12.91
2018-09-26T16:30:02.146Z,12.93
2018-09-26T16:32:31.071Z,12.85
2018-09-26T16:35:00.028Z,12.92
2018-09-26T16:37:28.964Z,12.84
2018-09-26T16:39:57.862Z,12.94
2018-09-26T16:42:27.760Z,12.87
2018-09-26T16:44:56.672Z,12.92
2018-09-26T16:47:25.604Z,12.93
2018-09-26T16:49:54.563Z,12.92
2018-09-26T16:52:23.581Z,12.97
2018-09-26T16:54:52.489Z,13.03
2018-09-26T16:57:21.449Z,12.96
2018-09-26T16:59:50.364Z,13.00
2018-09-26T17:02:19.384Z,12.97
2018-09-26T17:04:48.219Z,12.99
2018-09-26T17:07:17.496Z,13.00
2018-09-26T17:09:46.553Z,12.99
2018-09-26T17:12:15.580Z,12.89
2018-09-26T17:14:44.560Z,12.90
2018-09-26T17:17:13.943Z,12.89
2018-09-26T17:19:43.839Z,12.88
2018-09-26T17:22:12.832Z,12.91
2018-09-26T17:24:41.719Z,12.96
2018-09-26T17:27:10.805Z,12.90
2018-09-26T17:29:39.731Z,12.90
2018-09-26T17:32:08.656Z,12.92
2018-09-26T17:34:37.654Z,12.87
2018-09-26T17:37:06.699Z,12.94
2018-09-26T17:39:35.690Z,12.93
2018-09-26T17:42:04.674Z,12.94
2018-09-26T17:44:33.589Z,12.90
2018-09-26T17:47:02.548Z,12.84
2018-09-26T17:49:31.464Z,12.81
2018-09-26T17:52:00.463Z,12.75
2018-09-26T17:54:29.415Z,12.71
2018-09-26T17:56:58.442Z,12.69
2018-09-26T17:59:27.390Z,12.57
2018-09-26T18:01:56.365Z,12.60
2018-09-26T18:04:25.362Z,12.58
2018-09-26T18:06:55.698Z,12.55
2018-09-26T18:09:24.707Z,12.61
2018-09-26T18:11:53.636Z,12.60
2018-09-26T18:14:22.538Z,12.54
2018-09-26T18:16:51.488Z,12.59
2018-09-26T18:19:20.471Z,12.64
2018-09-26T18:21:49.445Z,12.69
2018-09-26T18:24:18.403Z,12.75
2018-09-26T18:26:47.403Z,12.76
2018-09-26T18:29:16.324Z,12.81
2018-09-26T18:31:45.254Z,12.82
2018-09-26T18:34:14.255Z,12.82
2018-09-26T18:36:43.187Z,12.78
2018-09-26T18:39:12.906Z,12.77
2018-09-26T18:41:41.839Z,12.76
2018-09-26T18:44:10.787Z,12.74
2018-09-26T18:46:40.829Z,12.71
2018-09-26T18:49:09.907Z,12.76
2018-09-26T18:51:38.937Z,12.70
2018-09-26T18:54:07.908Z,12.66
2018-09-26T18:56:36.875Z,12.58
2018-09-26T18:59:05.961Z,12.57
2018-09-26T19:01:34.764Z,12.51
2018-09-26T19:04:05.073Z,12.47
2018-09-26T19:06:34.066Z,12.45
2018-09-26T19:09:03.638Z,12.40
2018-09-26T19:11:32.691Z,12.30
2018-09-26T19:14:01.743Z,12.17
2018-09-26T19:16:30.757Z,12.19
2018-09-26T19:18:59.704Z,12.11
2018-09-26T19:21:28.687Z,12.10
2018-09-26T19:23:57.671Z,12.20
2018-09-26T19:26:26.593Z,12.14
2018-09-26T19:28:55.531Z,12.06
2018-09-26T19:31:24.454Z,12.01
2018-09-26T19:33:53.399Z,11.86
2018-09-26T19:36:22.338Z,11.70
2018-09-26T19:38:51.371Z,11.66
2018-09-26T19:41:20.308Z,11.60
2018-09-26T19:43:49.305Z,11.54
2018-09-26T19:46:18.223Z,11.48
2018-09-26T19:48:47.148Z,11.48
2018-09-26T19:51:17.036Z,11.40
2018-09-26T19:53:46.139Z,11.46
2018-09-26T19:56:15.159Z,11.38
2018-09-26T19:58:44.078Z,11.27
2018-09-26T20:01:13.101Z,11.21
2018-09-26T20:03:42.069Z,11.17
2018-09-26T20:06:11.008Z,11.13
2018-09-26T20:08:39.951Z,11.11
2018-09-26T20:11:09.201Z,11.03
2018-09-26T20:13:38.140Z,11.05
2018-09-26T20:16:07.151Z,11.05
2018-09-26T20:18:36.165Z,10.98
2018-09-26T20:21:05.091Z,10.94
2018-09-26T20:23:34.107Z,10.88
2018-09-26T20:26:03.227Z,10.75
2018-09-26T20:28:32.276Z,10.70
2018-09-26T20:31:02.177Z,10.60
2018-09-26T20:33:31.107Z,10.59
2018-09-26T20:36:00.849Z,10.58
2018-09-26T20:38:29.760Z,10.55
2018-09-26T20:40:58.863Z,10.56
2018-09-26T20:43:27.810Z,10.57
2018-09-26T20:45:56.739Z,10.59
2018-09-26T20:48:25.824Z,10.55
2018-09-26T20:50:54.822Z,10.56
2018-09-26T20:53:24.655Z,10.51
2018-09-26T20:55:53.559Z,10.45
2018-09-26T20:58:22.515Z,10.41
2018-09-26T21:00:51.436Z,10.38
2018-09-26T21:03:21.230Z,10.35
2018-09-26T21:05:50.915Z,10.21
2018-09-26T21:08:19.915Z,10.14
2018-09-26T21:10:49.627Z,10.09
2018-09-26T21:13:19.068Z,10.02
2018-09-26T21:15:48.002Z,9.98
2018-09-26T21:18:16.933Z,10.01
2018-09-26T21:20:47.012Z,10.08
2018-09-26T21:23:15.995Z,10.00
2018-09-26T21:25:45.007Z,10.04
2018-09-26T21:28:14.172Z,10.09
2018-09-26T21:30:43.208Z,10.05
2018-09-26T21:33:12.125Z,10.05
2018-09-26T21:35:41.073Z,10.15
2018-09-26T21:38:10.737Z,10.10
2018-09-26T21:40:39.704Z,9.97
2018-09-26T21:43:09.296Z,9.87
2018-09-26T21:45:38.288Z,9.76
2018-09-26T21:48:07.313Z,9.65
2018-09-26T21:50:36.216Z,9.58
2018-09-26T21:53:05.227Z,9.58
2018-09-26T21:55:34.131Z,9.45
2018-09-26T21:58:03.051Z,9.44
2018-09-26T22:00:32.080Z,9.38
2018-09-26T22:03:01.026Z,9.31
2018-09-26T22:05:29.939Z,9.22
2018-09-26T22:07:59.800Z,9.12
2018-09-26T22:10:28.798Z,9.07
2018-09-26T22:12:57.702Z,9.12
2018-09-26T22:15:26.598Z,9.10
2018-09-26T22:17:55.651Z,9.05
2018-09-26T22:20:24.562Z,9.04
2018-09-26T22:22:54.282Z,9.05
2018-09-26T22:25:24.506Z,9.01
2018-09-26T22:27:53.418Z,8.96
2018-09-26T22:30:23.359Z,8.89
2018-09-26T22:32:52.358Z,8.82
2018-09-26T22:35:21.273Z,8.74
2018-09-26T22:37:53.061Z,8.76
2018-09-26T22:40:22.157Z,8.84
2018-09-26T22:42:51.054Z,8.85
2018-09-26T22:45:19.974Z,8.81
2018-09-26T22:47:48.871Z,8.74
2018-09-26T22:50:17.789Z,8.65
2018-09-26T22:52:46.712Z,8.57
2018-09-26T22:55:15.679Z,8.48
2018-09-26T22:57:44.769Z,8.46
2018-09-26T23:00:13.697Z,8.48
2018-09-26T23:02:42.620Z,8.44
2018-09-26T23:05:11.587Z,8.40
2018-09-26T23:07:40.521Z,8.35
2018-09-26T23:10:09.456Z,8.28
2018-09-26T23:12:38.590Z,8.17
2018-09-26T23:15:07.564Z,8.16
2018-09-26T23:17:36.622Z,8.14
2018-09-26T23:20:05.603Z,8.18
2018-09-26T23:22:34.559Z,8.22
2018-09-26T23:25:03.470Z,8.29
2018-09-26T23:27:32.367Z,8.29
2018-09-26T23:30:01.300Z,8.26
2018-09-26T23:32:30.227Z,8.22
2018-09-26T23:34:59.171Z,8.24
2018-09-26T23:37:28.127Z,8.23
2018-09-26T23:39:57.019Z,8.16
2018-09-26T23:42:26.196Z,8.15
2018-09-26T23:44:55.120Z,8.14
2018-09-26T23:47:24.044Z,8.18
2018-09-26T23:49:53.086Z,8.21
2018-09-26T23:52:21.993Z,8.20
2018-09-26T23:54:50.891Z,8.18
2018-09-26T23:57:19.780Z,8.14
2018-09-26T23:59:48.694Z,8.10
